sensor_id;sensor_type;location;lat;lon;timestamp;pressure;altitude;pressure_sealevel;temperature;humidity
6132;BME280;3097;42.692;23.278;2023-04-03T00:01:16;94410.13;;;8.55;70.77
6132;BME280;3097;42.692;23.278;2023-04-03T00:03:42;94407.09;;;8.58;70.30
6132;BME280;3097;42.692;23.278;2023-04-03T00:06:09;94403.06;;;8.50;70.49
6132;BME280;3097;42.692;23.278;2023-04-03T00:08:37;94396.81;;;8.46;70.00
6132;BME280;3097;42.692;23.278;2023-04-03T00:11:02;94395.03;;;8.47;70.53
6132;BME280;3097;42.692;23.278;2023-04-03T00:13:29;94394.56;;;8.38;70.42
6132;BME280;3097;42.692;23.278;2023-04-03T00:15:54;94392.47;;;8.29;71.06
6132;BME280;3097;42.692;23.278;2023-04-03T00:18:20;94388.22;;;8.23;71.51
6132;BME280;3097;42.692;23.278;2023-04-03T00:20:45;94387.22;;;8.24;71.72
6132;BME280;3097;42.692;23.278;2023-04-03T00:23:11;94364.22;;;8.17;71.28
6132;BME280;3097;42.692;23.278;2023-04-03T00:25:36;94382.19;;;8.17;71.67
6132;BME280;3097;42.692;23.278;2023-04-03T00:28:03;94380.25;;;8.12;72.11
6132;BME280;3097;42.692;23.278;2023-04-03T00:30:29;94391.19;;;8.08;72.67
6132;BME280;3097;42.692;23.278;2023-04-03T00:32:54;94369.84;;;7.96;72.57
6132;BME280;3097;42.692;23.278;2023-04-03T00:35:21;94394.63;;;8.02;72.76
6132;BME280;3097;42.692;23.278;2023-04-03T00:37:47;94390.00;;;7.92;73.36
6132;BME280;3097;42.692;23.278;2023-04-03T00:40:15;94391.78;;;7.92;73.18
6132;BME280;3097;42.692;23.278;2023-04-03T00:42:42;94397.28;;;7.95;73.25
6132;BME280;3097;42.692;23.278;2023-04-03T00:47:49;94400.47;;;7.91;73.34
6132;BME280;3097;42.692;23.278;2023-04-03T00:50:15;94364.50;;;7.61;73.91
6132;BME280;3097;42.692;23.278;2023-04-03T00:52:40;94398.69;;;7.91;73.61
6132;BME280;3097;42.692;23.278;2023-04-03T00:55:07;94400.53;;;8.02;73.15
6132;BME280;3097;42.692;23.278;2023-04-03T00:57:34;94401.84;;;7.93;73.43
6132;BME280;3097;42.692;23.278;2023-04-03T01:00:07;94369.75;;;7.84;73.04
6132;BME280;3097;42.692;23.278;2023-04-03T01:02:34;94406.38;;;7.91;73.52
6132;BME280;3097;42.692;23.278;2023-04-03T01:05:00;94398.56;;;7.86;73.43
6132;BME280;3097;42.692;23.278;2023-04-03T01:07:29;94404.03;;;7.90;73.56
6132;BME280;3097;42.692;23.278;2023-04-03T01:10:00;94404.41;;;7.93;73.40
6132;BME280;3097;42.692;23.278;2023-04-03T01:14:54;94398.97;;;7.83;73.63
6132;BME280;3097;42.692;23.278;2023-04-03T01:25:41;94400.13;;;7.69;73.82
6132;BME280;3097;42.692;23.278;2023-04-03T01:28:16;94404.69;;;7.67;74.05
6132;BME280;3097;42.692;23.278;2023-04-03T01:30:53;94406.25;;;7.68;74.25
6132;BME280;3097;42.692;23.278;2023-04-03T01:33:22;94400.00;;;7.64;74.35
6132;BME280;3097;42.692;23.278;2023-04-03T01:35:47;94406.19;;;7.74;74.35
6132;BME280;3097;42.692;23.278;2023-04-03T01:38:13;94413.16;;;7.67;74.92
6132;BME280;3097;42.692;23.278;2023-04-03T01:40:38;94381.91;;;7.59;74.53
6132;BME280;3097;42.692;23.278;2023-04-03T01:43:05;94406.63;;;7.71;73.99
6132;BME280;3097;42.692;23.278;2023-04-03T01:45:30;94402.50;;;7.70;73.90
6132;BME280;3097;42.692;23.278;2023-04-03T01:47:56;94398.56;;;7.68;74.11
6132;BME280;3097;42.692;23.278;2023-04-03T01:50:21;94401.78;;;7.63;74.29
6132;BME280;3097;42.692;23.278;2023-04-03T01:52:47;94405.13;;;7.64;74.54
6132;BME280;3097;42.692;23.278;2023-04-03T01:55:12;94402.13;;;7.67;74.61
6132;BME280;3097;42.692;23.278;2023-04-03T01:57:38;94413.16;;;7.67;74.66
6132;BME280;3097;42.692;23.278;2023-04-03T02:00:04;94375.72;;;7.48;74.73
6132;BME280;3097;42.692;23.278;2023-04-03T02:02:29;94400.00;;;7.64;74.35
6132;BME280;3097;42.692;23.278;2023-04-03T02:04:55;94404.41;;;7.75;73.95
6132;BME280;3097;42.692;23.278;2023-04-03T02:07:20;94390.53;;;7.64;73.95
6132;BME280;3097;42.692;23.278;2023-04-03T02:09:46;94390.72;;;7.45;74.96
6132;BME280;3097;42.692;23.278;2023-04-03T02:12:11;94385.19;;;7.48;74.59
6132;BME280;3097;42.692;23.278;2023-04-03T02:14:37;94393.28;;;7.45;74.95
6132;BME280;3097;42.692;23.278;2023-04-03T02:17:02;94387.63;;;7.43;74.54
6132;BME280;3097;42.692;23.278;2023-04-03T02:19:30;94399.13;;;7.33;75.21
6132;BME280;3097;42.692;23.278;2023-04-03T02:21:56;94386.19;;;7.28;75.12
6132;BME280;3097;42.692;23.278;2023-04-03T02:24:21;94406.13;;;7.45;75.26
6132;BME280;3097;42.692;23.278;2023-04-03T02:26:47;94391.22;;;7.53;75.16
6132;BME280;3097;42.692;23.278;2023-04-03T02:29:12;94396.09;;;7.43;75.32
6132;BME280;3097;42.692;23.278;2023-04-03T02:31:38;94357.47;;;7.20;75.20
6132;BME280;3097;42.692;23.278;2023-04-03T02:34:03;94352.84;;;7.10;75.25
6132;BME280;3097;42.692;23.278;2023-04-03T02:36:28;94382.47;;;7.24;75.71
6132;BME280;3097;42.692;23.278;2023-04-03T02:38:54;94374.91;;;7.11;75.90
6132;BME280;3097;42.692;23.278;2023-04-03T02:41:19;94382.75;;;7.16;76.25
6132;BME280;3097;42.692;23.278;2023-04-03T02:43:46;94379.97;;;7.18;76.02
6132;BME280;3097;42.692;23.278;2023-04-03T02:46:11;94388.00;;;7.03;76.84
6132;BME280;3097;42.692;23.278;2023-04-03T02:48:39;94356.53;;;6.96;76.46
6132;BME280;3097;42.692;23.278;2023-04-03T02:51:05;94354.94;;;6.95;76.33
6132;BME280;3097;42.692;23.278;2023-04-03T02:53:30;94359.03;;;7.03;76.31
6132;BME280;3097;42.692;23.278;2023-04-03T02:55:55;94370.47;;;7.00;77.11
6132;BME280;3097;42.692;23.278;2023-04-03T02:58:21;94378.16;;;7.00;77.29
6132;BME280;3097;42.692;23.278;2023-04-03T03:00:46;94365.78;;;6.97;77.15
6132;BME280;3097;42.692;23.278;2023-04-03T03:03:12;94346.59;;;6.81;77.42
6132;BME280;3097;42.692;23.278;2023-04-03T03:05:39;94378.59;;;6.97;77.14
6132;BME280;3097;42.692;23.278;2023-04-03T03:08:04;94365.06;;;6.90;77.64
6132;BME280;3097;42.692;23.278;2023-04-03T03:10:30;94379.16;;;6.99;76.91
6132;BME280;3097;42.692;23.278;2023-04-03T03:12:55;94370.31;;;6.95;77.01
6132;BME280;3097;42.692;23.278;2023-04-03T03:15:21;94349.22;;;6.75;77.77
6132;BME280;3097;42.692;23.278;2023-04-03T03:17:46;94360.59;;;6.79;77.62
6132;BME280;3097;42.692;23.278;2023-04-03T03:20:12;94361.34;;;6.86;77.50
6132;BME280;3097;42.692;23.278;2023-04-03T03:22:40;94336.81;;;6.72;77.49
6132;BME280;3097;42.692;23.278;2023-04-03T03:25:06;94338.97;;;6.75;77.31
6132;BME280;3097;42.692;23.278;2023-04-03T03:27:31;94363.75;;;6.81;77.85
6132;BME280;3097;42.692;23.278;2023-04-03T03:29:58;94363.03;;;6.92;77.29
6132;BME280;3097;42.692;23.278;2023-04-03T03:32:23;94364.06;;;6.91;77.61
6132;BME280;3097;42.692;23.278;2023-04-03T03:34:49;94360.09;;;6.70;77.97
6132;BME280;3097;42.692;23.278;2023-04-03T03:37:15;94357.56;;;6.64;78.92
6132;BME280;3097;42.692;23.278;2023-04-03T03:39:40;94362.69;;;6.64;79.13
6132;BME280;3097;42.692;23.278;2023-04-03T03:42:06;94364.22;;;6.71;79.14
6132;BME280;3097;42.692;23.278;2023-04-03T03:44:31;94369.38;;;6.65;79.69
6132;BME280;3097;42.692;23.278;2023-04-03T03:46:57;94359.81;;;6.78;78.59
6132;BME280;3097;42.692;23.278;2023-04-03T03:49:25;94370.25;;;6.83;78.59
6132;BME280;3097;42.692;23.278;2023-04-03T03:51:51;94357.13;;;6.73;78.91
6132;BME280;3097;42.692;23.278;2023-04-03T03:54:17;94359.47;;;6.75;78.75
6132;BME280;3097;42.692;23.278;2023-04-03T03:56:42;94370.28;;;6.77;78.24
6132;BME280;3097;42.692;23.278;2023-04-03T03:59:07;94382.25;;;6.83;78.36
6132;BME280;3097;42.692;23.278;2023-04-03T04:01:33;94361.44;;;6.73;78.62
6132;BME280;3097;42.692;23.278;2023-04-03T04:03:59;94370.28;;;6.77;78.45
6132;BME280;3097;42.692;23.278;2023-04-03T04:06:24;94372.94;;;6.88;78.37
6132;BME280;3097;42.692;23.278;2023-04-03T04:08:50;94371.16;;;6.89;78.23
6132;BME280;3097;42.692;23.278;2023-04-03T04:11:15;94369.47;;;6.83;78.66
6132;BME280;3097;42.692;23.278;2023-04-03T04:13:41;94358.63;;;6.81;78.89
6132;BME280;3097;42.692;23.278;2023-04-03T04:16:07;94326.28;;;6.61;79.11
6132;BME280;3097;42.692;23.278;2023-04-03T04:18:33;94373.34;;;6.85;79.27
6132;BME280;3097;42.692;23.278;2023-04-03T04:20:59;94368.41;;;6.66;79.45
6132;BME280;3097;42.692;23.278;2023-04-03T04:23:24;94317.69;;;6.31;78.96
6132;BME280;3097;42.692;23.278;2023-04-03T04:25:50;94371.84;;;6.78;78.63
6132;BME280;3097;42.692;23.278;2023-04-03T04:28:16;94390.03;;;6.94;78.77
6132;BME280;3097;42.692;23.278;2023-04-03T04:30:42;94382.63;;;6.86;78.93
6132;BME280;3097;42.692;23.278;2023-04-03T04:33:07;94376.97;;;7.03;78.34
6132;BME280;3097;42.692;23.278;2023-04-03T04:35:33;94375.84;;;6.92;78.41
6132;BME280;3097;42.692;23.278;2023-04-03T04:37:59;94387.13;;;7.09;77.85
6132;BME280;3097;42.692;23.278;2023-04-03T04:40:25;94406.84;;;7.09;78.35
6132;BME280;3097;42.692;23.278;2023-04-03T04:42:50;94402.09;;;7.12;78.28
6132;BME280;3097;42.692;23.278;2023-04-03T04:45:16;94398.03;;;7.05;79.30
6132;BME280;3097;42.692;23.278;2023-04-03T04:47:41;94395.69;;;7.03;79.33
6132;BME280;3097;42.692;23.278;2023-04-03T04:50:07;94406.91;;;7.02;79.07
6132;BME280;3097;42.692;23.278;2023-04-03T04:52:33;94403.56;;;7.02;79.63
6132;BME280;3097;42.692;23.278;2023-04-03T04:54:59;94416.25;;;7.15;79.62
6132;BME280;3097;42.692;23.278;2023-04-03T04:57:24;94379.91;;;7.06;78.57
6132;BME280;3097;42.692;23.278;2023-04-03T04:59:50;94406.63;;;7.35;78.16
6132;BME280;3097;42.692;23.278;2023-04-03T05:02:15;94415.66;;;7.37;78.27
6132;BME280;3097;42.692;23.278;2023-04-03T05:04:41;94422.56;;;7.37;78.46
6132;BME280;3097;42.692;23.278;2023-04-03T05:07:07;94423.78;;;7.34;78.52
6132;BME280;3097;42.692;23.278;2023-04-03T05:09:33;94379.44;;;7.09;78.75
6132;BME280;3097;42.692;23.278;2023-04-03T05:11:58;94420.38;;;7.59;77.95
6132;BME280;3097;42.692;23.278;2023-04-03T05:14:24;94422.97;;;7.59;77.89
6132;BME280;3097;42.692;23.278;2023-04-03T05:16:49;94431.56;;;7.64;77.82
6132;BME280;3097;42.692;23.278;2023-04-03T05:19:18;94433.19;;;7.77;77.40
6132;BME280;3097;42.692;23.278;2023-04-03T05:21:43;94431.91;;;7.86;76.73
6132;BME280;3097;42.692;23.278;2023-04-03T05:24:10;94448.44;;;8.08;76.08
6132;BME280;3097;42.692;23.278;2023-04-03T05:26:36;94437.19;;;8.09;76.16
6132;BME280;3097;42.692;23.278;2023-04-03T05:29:02;94439.16;;;8.26;76.27
6132;BME280;3097;42.692;23.278;2023-04-03T05:31:28;94437.44;;;8.38;76.12
6132;BME280;3097;42.692;23.278;2023-04-03T05:33:54;94398.06;;;8.26;75.48
6132;BME280;3097;42.692;23.278;2023-04-03T05:36:20;94438.56;;;8.72;74.49
6132;BME280;3097;42.692;23.278;2023-04-03T05:38:45;94438.16;;;8.98;73.59
6132;BME280;3097;42.692;23.278;2023-04-03T05:41:11;94415.91;;;9.04;72.51
6132;BME280;3097;42.692;23.278;2023-04-03T05:43:37;94430.13;;;9.29;71.38
6132;BME280;3097;42.692;23.278;2023-04-03T05:46:08;94433.69;;;9.40;70.28
6132;BME280;3097;42.692;23.278;2023-04-03T05:48:37;94440.41;;;9.53;70.30
6132;BME280;3097;42.692;23.278;2023-04-03T05:51:03;94429.91;;;9.54;69.57
6132;BME280;3097;42.692;23.278;2023-04-03T05:53:31;94424.63;;;9.61;69.24
6132;BME280;3097;42.692;23.278;2023-04-03T05:55:59;94432.41;;;9.78;68.41
6132;BME280;3097;42.692;23.278;2023-04-03T05:58:25;94419.66;;;9.83;67.80
6132;BME280;3097;42.692;23.278;2023-04-03T06:00:51;94424.34;;;9.86;67.91
6132;BME280;3097;42.692;23.278;2023-04-03T06:03:16;94403.22;;;9.84;68.06
6132;BME280;3097;42.692;23.278;2023-04-03T06:05:42;94417.09;;;9.83;67.69
6132;BME280;3097;42.692;23.278;2023-04-03T06:08:09;94413.50;;;9.84;68.29
6132;BME280;3097;42.692;23.278;2023-04-03T06:10:35;94384.06;;;9.80;68.42
6132;BME280;3097;42.692;23.278;2023-04-03T06:13:01;94386.16;;;9.94;68.09
6132;BME280;3097;42.692;23.278;2023-04-03T06:15:27;94399.78;;;10.18;67.34
6132;BME280;3097;42.692;23.278;2023-04-03T06:17:52;94375.41;;;9.97;67.79
6132;BME280;3097;42.692;23.278;2023-04-03T06:20:18;94400.03;;;10.33;67.45
6132;BME280;3097;42.692;23.278;2023-04-03T06:22:43;94398.88;;;10.41;66.34
6132;BME280;3097;42.692;23.278;2023-04-03T06:25:09;94387.88;;;10.29;66.24
6132;BME280;3097;42.692;23.278;2023-04-03T06:27:36;94404.63;;;10.60;66.06
6132;BME280;3097;42.692;23.278;2023-04-03T06:30:02;94347.09;;;10.26;65.18
6132;BME280;3097;42.692;23.278;2023-04-03T06:32:27;94403.47;;;10.84;65.21
6132;BME280;3097;42.692;23.278;2023-04-03T06:34:53;94404.81;;;11.03;64.99
6132;BME280;3097;42.692;23.278;2023-04-03T06:37:21;94414.03;;;11.16;64.58
6132;BME280;3097;42.692;23.278;2023-04-03T06:39:47;94391.69;;;11.05;63.94
6132;BME280;3097;42.692;23.278;2023-04-03T06:42:12;94415.13;;;11.20;64.09
6132;BME280;3097;42.692;23.278;2023-04-03T06:44:38;94421.91;;;11.09;64.12
6132;BME280;3097;42.692;23.278;2023-04-03T06:47:04;94403.09;;;10.92;65.16
6132;BME280;3097;42.692;23.278;2023-04-03T06:49:30;94410.19;;;11.02;65.31
6132;BME280;3097;42.692;23.278;2023-04-03T06:51:55;94376.59;;;10.80;65.02
6132;BME280;3097;42.692;23.278;2023-04-03T06:54:22;94416.13;;;11.02;65.82
6132;BME280;3097;42.692;23.278;2023-04-03T06:56:48;94395.91;;;10.94;65.51
6132;BME280;3097;42.692;23.278;2023-04-03T06:59:13;94410.91;;;10.97;65.02
6132;BME280;3097;42.692;23.278;2023-04-03T07:01:41;94431.63;;;11.02;63.94
6132;BME280;3097;42.692;23.278;2023-04-03T07:04:07;94432.63;;;11.01;64.46
6132;BME280;3097;42.692;23.278;2023-04-03T07:06:33;94367.63;;;10.66;65.00
6132;BME280;3097;42.692;23.278;2023-04-03T07:09:18;94413.25;;;11.15;65.58
6132;BME280;3097;42.692;23.278;2023-04-03T07:11:43;94413.94;;;11.11;65.56
6132;BME280;3097;42.692;23.278;2023-04-03T07:14:11;94418.56;;;11.25;64.93
6132;BME280;3097;42.692;23.278;2023-04-03T07:16:36;94405.50;;;11.32;65.17
6132;BME280;3097;42.692;23.278;2023-04-03T07:19:02;94403.38;;;11.29;65.13
6132;BME280;3097;42.692;23.278;2023-04-03T07:21:28;94387.09;;;11.29;64.75
6132;BME280;3097;42.692;23.278;2023-04-03T07:23:53;94413.31;;;11.59;64.21
6132;BME280;3097;42.692;23.278;2023-04-03T07:26:19;94404.00;;;11.75;63.67
6132;BME280;3097;42.692;23.278;2023-04-03T07:28:48;94404.94;;;11.85;63.99
6132;BME280;3097;42.692;23.278;2023-04-03T07:31:15;94402.16;;;11.92;62.88
6132;BME280;3097;42.692;23.278;2023-04-03T07:33:43;94383.66;;;12.00;63.52
6132;BME280;3097;42.692;23.278;2023-04-03T07:36:10;94394.50;;;12.24;62.63
6132;BME280;3097;42.692;23.278;2023-04-03T07:38:36;94395.28;;;12.51;62.69
6132;BME280;3097;42.692;23.278;2023-04-03T07:41:03;94387.97;;;12.70;62.39
6132;BME280;3097;42.692;23.278;2023-04-03T07:43:30;94372.63;;;12.90;61.17
6132;BME280;3097;42.692;23.278;2023-04-03T07:45:55;94372.72;;;13.05;59.21
6132;BME280;3097;42.692;23.278;2023-04-03T07:48:22;94367.91;;;13.14;59.82
6132;BME280;3097;42.692;23.278;2023-04-03T07:50:48;94364.66;;;13.34;60.29
6132;BME280;3097;42.692;23.278;2023-04-03T07:53:14;94370.69;;;13.49;58.01
6132;BME280;3097;42.692;23.278;2023-04-03T07:55:40;94357.19;;;13.42;57.04
6132;BME280;3097;42.692;23.278;2023-04-03T07:58:16;94333.50;;;13.18;57.06
6132;BME280;3097;42.692;23.278;2023-04-03T08:00:44;94368.31;;;13.38;57.63
6132;BME280;3097;42.692;23.278;2023-04-03T08:03:10;94354.28;;;13.29;56.74
6132;BME280;3097;42.692;23.278;2023-04-03T08:05:44;94360.72;;;13.26;55.13
6132;BME280;3097;42.692;23.278;2023-04-03T08:08:16;94362.84;;;13.34;54.85
6132;BME280;3097;42.692;23.278;2023-04-03T08:10:42;94363.06;;;13.28;55.34
6132;BME280;3097;42.692;23.278;2023-04-03T08:13:09;94330.81;;;13.08;55.06
6132;BME280;3097;42.692;23.278;2023-04-03T08:15:35;94346.09;;;13.10;55.04
6132;BME280;3097;42.692;23.278;2023-04-03T08:18:01;94360.31;;;13.07;55.23
6132;BME280;3097;42.692;23.278;2023-04-03T08:20:26;94339.22;;;12.89;56.04
6132;BME280;3097;42.692;23.278;2023-04-03T08:22:52;94360.34;;;13.12;55.55
6132;BME280;3097;42.692;23.278;2023-04-03T08:25:18;94349.31;;;13.22;55.59
6132;BME280;3097;42.692;23.278;2023-04-03T08:27:44;94330.66;;;13.20;57.21
6132;BME280;3097;42.692;23.278;2023-04-03T08:30:10;94352.28;;;13.46;55.11
6132;BME280;3097;42.692;23.278;2023-04-03T08:32:36;94356.13;;;13.38;54.24
6132;BME280;3097;42.692;23.278;2023-04-03T08:35:03;94353.44;;;13.23;54.19
6132;BME280;3097;42.692;23.278;2023-04-03T08:37:29;94350.66;;;13.30;54.82
6132;BME280;3097;42.692;23.278;2023-04-03T08:39:54;94342.66;;;13.36;54.78
6132;BME280;3097;42.692;23.278;2023-04-03T08:45:45;94327.59;;;13.28;54.84
6132;BME280;3097;42.692;23.278;2023-04-03T08:48:24;94326.03;;;13.22;54.51
6132;BME280;3097;42.692;23.278;2023-04-03T08:50:56;94310.06;;;12.98;54.88
6132;BME280;3097;42.692;23.278;2023-04-03T08:53:25;94269.84;;;12.80;54.77
6132;BME280;3097;42.692;23.278;2023-04-03T08:55:54;94334.06;;;13.26;54.45
6132;BME280;3097;42.692;23.278;2023-04-03T09:03:38;94311.84;;;13.30;54.51
6132;BME280;3097;42.692;23.278;2023-04-03T09:06:07;94289.81;;;13.27;53.77
6132;BME280;3097;42.692;23.278;2023-04-03T09:17:04;94280.13;;;13.07;54.08
6132;BME280;3097;42.692;23.278;2023-04-03T09:19:45;94275.47;;;12.67;54.86
6132;BME280;3097;42.692;23.278;2023-04-03T09:22:24;94271.41;;;12.82;54.55
6132;BME280;3097;42.692;23.278;2023-04-03T09:25:00;94284.69;;;12.95;54.51
6132;BME280;3097;42.692;23.278;2023-04-03T09:27:27;94291.72;;;13.00;54.85
6132;BME280;3097;42.692;23.278;2023-04-03T09:29:55;94285.00;;;13.09;54.37
6132;BME280;3097;42.692;23.278;2023-04-03T09:32:28;94278.81;;;13.10;54.21
6132;BME280;3097;42.692;23.278;2023-04-03T09:35:04;94271.78;;;13.00;55.00
6132;BME280;3097;42.692;23.278;2023-04-03T09:40:04;94281.03;;;13.28;53.59
6132;BME280;3097;42.692;23.278;2023-04-03T09:42:31;94274.16;;;13.07;53.87
6132;BME280;3097;42.692;23.278;2023-04-03T09:44:59;94277.84;;;13.16;54.04
6132;BME280;3097;42.692;23.278;2023-04-03T09:47:26;94268.63;;;13.35;53.36
6132;BME280;3097;42.692;23.278;2023-04-03T09:50:19;94264.72;;;13.28;52.88
6132;BME280;3097;42.692;23.278;2023-04-03T09:52:47;94246.66;;;12.91;53.69
6132;BME280;3097;42.692;23.278;2023-04-03T09:55:19;94259.69;;;13.11;54.62
6132;BME280;3097;42.692;23.278;2023-04-03T09:57:47;94252.91;;;13.05;54.13
6132;BME280;3097;42.692;23.278;2023-04-03T10:00:25;94252.38;;;13.03;54.30
6132;BME280;3097;42.692;23.278;2023-04-03T10:02:54;94238.81;;;12.80;54.32
6132;BME280;3097;42.692;23.278;2023-04-03T10:05:37;94249.19;;;12.86;54.24
6132;BME280;3097;42.692;23.278;2023-04-03T10:10:39;94252.38;;;13.03;53.84
6132;BME280;3097;42.692;23.278;2023-04-03T10:13:11;94234.88;;;12.73;54.71
6132;BME280;3097;42.692;23.278;2023-04-03T10:16:00;94250.03;;;12.96;53.88
6132;BME280;3097;42.692;23.278;2023-04-03T10:18:29;94244.06;;;12.91;53.90
6132;BME280;3097;42.692;23.278;2023-04-03T10:21:05;94244.59;;;12.93;54.09
6132;BME280;3097;42.692;23.278;2023-04-03T10:23:41;94211.63;;;12.78;54.59
6132;BME280;3097;42.692;23.278;2023-04-03T10:31:40;94228.94;;;13.20;53.49
6132;BME280;3097;42.692;23.278;2023-04-03T10:34:31;94231.03;;;12.75;55.10
6132;BME280;3097;42.692;23.278;2023-04-03T10:37:21;94202.63;;;12.86;54.67
6132;BME280;3097;42.692;23.278;2023-04-03T10:43:04;94208.56;;;12.86;54.02
6132;BME280;3097;42.692;23.278;2023-04-03T10:46:11;94211.00;;;13.03;54.63
6132;BME280;3097;42.692;23.278;2023-04-03T10:51:31;94210.50;;;13.06;54.11
6132;BME280;3097;42.692;23.278;2023-04-03T10:56:52;94178.31;;;12.87;53.76
6132;BME280;3097;42.692;23.278;2023-04-03T10:59:35;94213.09;;;13.06;54.21
6132;BME280;3097;42.692;23.278;2023-04-03T11:02:07;94218.22;;;13.01;53.97
6132;BME280;3097;42.692;23.278;2023-04-03T11:04:40;94215.03;;;12.84;54.31
6132;BME280;3097;42.692;23.278;2023-04-03T11:09:43;94219.34;;;12.68;55.78
6132;BME280;3097;42.692;23.278;2023-04-03T11:14:54;94216.78;;;12.73;56.72
6132;BME280;3097;42.692;23.278;2023-04-03T11:20:06;94219.84;;;12.65;58.33
6132;BME280;3097;42.692;23.278;2023-04-03T11:22:43;94217.78;;;12.62;60.07
6132;BME280;3097;42.692;23.278;2023-04-03T11:27:43;94212.59;;;12.62;62.01
6132;BME280;3097;42.692;23.278;2023-04-03T11:30:22;94188.97;;;12.48;62.26
6132;BME280;3097;42.692;23.278;2023-04-03T11:33:11;94212.91;;;12.70;64.25
6132;BME280;3097;42.692;23.278;2023-04-03T11:35:47;94219.94;;;12.80;65.04
6132;BME280;3097;42.692;23.278;2023-04-03T11:38:27;94210.25;;;12.55;66.85
6132;BME280;3097;42.692;23.278;2023-04-03T11:40:55;94196.28;;;12.19;68.48
6132;BME280;3097;42.692;23.278;2023-04-03T11:43:27;94199.84;;;12.13;70.83
6132;BME280;3097;42.692;23.278;2023-04-03T11:46:04;94190.94;;;11.99;71.41
6132;BME280;3097;42.692;23.278;2023-04-03T11:53:53;94206.00;;;11.80;75.72
6132;BME280;3097;42.692;23.278;2023-04-03T12:01:54;94213.84;;;11.63;78.12
6132;BME280;3097;42.692;23.278;2023-04-03T12:04:23;94213.06;;;11.63;78.31
6132;BME280;3097;42.692;23.278;2023-04-03T12:12:37;94214.28;;;11.77;79.02
6132;BME280;3097;42.692;23.278;2023-04-03T12:15:20;94214.75;;;11.74;77.85
6132;BME280;3097;42.692;23.278;2023-04-03T12:17:47;94202.16;;;11.56;79.31
6132;BME280;3097;42.692;23.278;2023-04-03T12:23:33;94181.78;;;11.33;82.03
6132;BME280;3097;42.692;23.278;2023-04-03T12:26:20;94196.34;;;11.44;82.41
6132;BME280;3097;42.692;23.278;2023-04-03T12:28:48;94188.34;;;11.18;84.88
6132;BME280;3097;42.692;23.278;2023-04-03T12:31:16;94147.88;;;10.75;85.97
6132;BME280;3097;42.692;23.278;2023-04-03T12:33:57;94196.50;;;10.89;87.92
6132;BME280;3097;42.692;23.278;2023-04-03T12:37:09;94193.91;;;10.67;90.91
6132;BME280;3097;42.692;23.278;2023-04-03T12:40:00;94191.78;;;10.42;94.05
6132;BME280;3097;42.692;23.278;2023-04-03T12:45:24;94178.72;;;10.32;95.81
6132;BME280;3097;42.692;23.278;2023-04-03T12:47:53;94165.16;;;10.03;97.64
6132;BME280;3097;42.692;23.278;2023-04-03T12:50:30;94165.31;;;9.96;100.00
6132;BME280;3097;42.692;23.278;2023-04-03T12:53:01;94131.63;;;9.98;100.00
6132;BME280;3097;42.692;23.278;2023-04-03T12:55:28;94165.47;;;10.23;99.39
6132;BME280;3097;42.692;23.278;2023-04-03T12:57:54;94052.94;;;9.52;100.00
6132;BME280;3097;42.692;23.278;2023-04-03T13:00:33;94166.81;;;10.26;100.00
6132;BME280;3097;42.692;23.278;2023-04-03T13:03:01;94155.69;;;10.08;100.00
6132;BME280;3097;42.692;23.278;2023-04-03T13:05:31;94171.56;;;10.17;100.00
6132;BME280;3097;42.692;23.278;2023-04-03T13:08:00;94163.75;;;10.12;100.00
6132;BME280;3097;42.692;23.278;2023-04-03T13:10:28;94090.03;;;9.56;100.00
6132;BME280;3097;42.692;23.278;2023-04-03T13:12:56;94165.06;;;9.81;100.00
6132;BME280;3097;42.692;23.278;2023-04-03T13:17:50;94155.63;;;9.87;100.00
6132;BME280;3097;42.692;23.278;2023-04-03T13:20:21;94163.91;;;9.89;100.00
6132;BME280;3097;42.692;23.278;2023-04-03T13:23:10;94160.38;;;9.78;100.00
6132;BME280;3097;42.692;23.278;2023-04-03T13:25:43;94148.84;;;9.81;100.00
6132;BME280;3097;42.692;23.278;2023-04-03T13:28:13;94164.22;;;9.76;100.00
6132;BME280;3097;42.692;23.278;2023-04-03T13:30:41;94141.50;;;9.56;100.00
6132;BME280;3097;42.692;23.278;2023-04-03T13:33:23;94150.31;;;9.60;100.00
6132;BME280;3097;42.692;23.278;2023-04-03T13:35:56;94148.97;;;9.57;100.00
6132;BME280;3097;42.692;23.278;2023-04-03T13:38:26;94157.25;;;9.59;100.00
6132;BME280;3097;42.692;23.278;2023-04-03T13:40:54;94156.69;;;9.57;100.00
6132;BME280;3097;42.692;23.278;2023-04-03T13:43:26;94129.16;;;9.41;100.00
6132;BME280;3097;42.692;23.278;2023-04-03T13:46:02;94156.66;;;9.24;100.00
6132;BME280;3097;42.692;23.278;2023-04-03T13:48:37;94116.91;;;9.03;100.00
6132;BME280;3097;42.692;23.278;2023-04-03T13:51:24;94148.56;;;9.32;100.00
6132;BME280;3097;42.692;23.278;2023-04-03T13:53:59;94137.25;;;9.33;100.00
6132;BME280;3097;42.692;23.278;2023-04-03T14:01:37;94131.22;;;9.39;100.00
6132;BME280;3097;42.692;23.278;2023-04-03T14:04:21;94132.72;;;9.23;100.00
6132;BME280;3097;42.692;23.278;2023-04-03T14:06:47;94105.31;;;9.01;100.00
6132;BME280;3097;42.692;23.278;2023-04-03T14:09:13;94122.34;;;9.18;100.00
6132;BME280;3097;42.692;23.278;2023-04-03T14:11:43;94116.03;;;9.26;100.00
6132;BME280;3097;42.692;23.278;2023-04-03T14:14:18;94119.72;;;9.30;100.00
6132;BME280;3097;42.692;23.278;2023-04-03T14:16:48;94129.22;;;9.29;100.00
6132;BME280;3097;42.692;23.278;2023-04-03T14:19:25;94133.50;;;9.24;100.00
6132;BME280;3097;42.692;23.278;2023-04-03T14:21:52;94131.03;;;9.29;100.00
6132;BME280;3097;42.692;23.278;2023-04-03T14:24:19;94096.84;;;9.00;100.00
6132;BME280;3097;42.692;23.278;2023-04-03T14:26:47;94116.78;;;9.10;100.00
6132;BME280;3097;42.692;23.278;2023-04-03T14:29:15;94120.25;;;9.15;100.00
6132;BME280;3097;42.692;23.278;2023-04-03T14:31:45;94108.69;;;9.18;100.00
6132;BME280;3097;42.692;23.278;2023-04-03T14:34:12;94089.34;;;8.99;100.00
6132;BME280;3097;42.692;23.278;2023-04-03T14:36:39;94111.69;;;9.26;100.00
6132;BME280;3097;42.692;23.278;2023-04-03T14:39:07;94106.91;;;9.18;100.00
6132;BME280;3097;42.692;23.278;2023-04-03T14:41:34;94122.84;;;9.32;100.00
6132;BME280;3097;42.692;23.278;2023-04-03T14:43:59;94092.00;;;9.04;100.00
6132;BME280;3097;42.692;23.278;2023-04-03T14:46:26;94114.19;;;9.21;100.00
6132;BME280;3097;42.692;23.278;2023-04-03T14:48:54;94055.13;;;8.81;100.00
6132;BME280;3097;42.692;23.278;2023-04-03T14:51:19;94098.28;;;8.96;100.00
6132;BME280;3097;42.692;23.278;2023-04-03T14:53:46;94078.25;;;8.81;100.00